Time;durP1;ratioP1;P1;durP2;ratioP2;P2;SDS_P1;SDS_P2;PMS_P1;PMS_P2;Temp;Humidity;BMP_temperature;BMP_pressure;BME280_temperature;BME280_humidity;BME280_pressure;Samples;Min_cycle;Max_cycle;Signal;HPM_P1;HPM_P2
2023/01/24 00:00:39;;;;;;;10.40;5.10;;;6.20;69.30;;;;;;2308597;54;21021;-73
2023/01/24 00:03:05;;;;;;;11.40;5.85;;;6.20;69.40;;;;;;2543858;53;22030;-73
2023/01/24 00:05:34;;;;;;;10.63;6.00;;;6.20;69.50;;;;;;2342148;53;21875;-72
2023/01/24 00:08:01;;;;;;;11.57;5.97;;;6.20;69.40;;;;;;2304914;54;20941;-72
2023/01/24 00:10:29;;;;;;;11.60;6.20;;;6.30;69.60;;;;;;2514334;53;20949;-74
2023/01/24 00:12:55;;;;;;;9.90;5.75;;;6.30;69.60;;;;;;2304327;54;21396;-73
2023/01/24 00:15:21;;;;;;;10.63;5.95;;;6.30;69.70;;;;;;2359476;53;20965;-76
2023/01/24 00:17:47;;;;;;;8.20;4.97;;;6.30;69.70;;;;;;2382400;53;21285;-74
2023/01/24 00:20:14;;;;;;;9.10;5.20;;;6.30;69.70;;;;;;2304752;54;21474;-73
2023/01/24 00:22:40;;;;;;;9.35;5.07;;;6.30;69.80;;;;;;2304383;54;20968;-73
2023/01/24 00:25:07;;;;;;;9.95;5.60;;;6.30;69.80;;;;;;2304996;54;21790;-73
2023/01/24 00:27:34;;;;;;;8.88;5.32;;;6.30;69.80;;;;;;2304315;54;21463;-71
2023/01/24 00:30:05;;;;;;;9.25;5.40;;;6.30;69.80;;;;;;2304970;53;21487;-75
2023/01/24 00:32:31;;;;;;;10.40;5.47;;;6.30;69.80;;;;;;2304185;54;20929;-77
2023/01/24 00:34:58;;;;;;;10.60;6.15;;;6.40;69.90;;;;;;2543992;53;21663;-74
2023/01/24 00:37:24;;;;;;;9.75;5.30;;;6.40;69.90;;;;;;2446670;53;21435;-72
2023/01/24 00:39:51;;;;;;;9.65;5.90;;;6.40;69.90;;;;;;2304526;54;21167;-71
2023/01/24 00:42:17;;;;;;;11.40;6.55;;;6.40;70.00;;;;;;2304087;54;21922;-74
2023/01/24 00:44:43;;;;;;;11.57;6.40;;;6.40;70.00;;;;;;2303741;54;20949;-71
2023/01/24 00:47:09;;;;;;;10.68;5.97;;;6.40;69.90;;;;;;2304469;54;20953;-75
2023/01/24 00:49:36;;;;;;;10.55;5.93;;;6.40;70.00;;;;;;2304473;54;21000;-72
2023/01/24 00:52:02;;;;;;;11.18;6.40;;;6.40;70.00;;;;;;2323764;53;21533;-73
2023/01/24 00:54:28;;;;;;;10.43;6.37;;;6.50;70.10;;;;;;2402750;53;21803;-73
2023/01/24 00:56:54;;;;;;;10.13;6.03;;;6.50;70.20;;;;;;2304738;54;20948;-75
2023/01/24 00:59:21;;;;;;;11.52;6.60;;;6.50;70.20;;;;;;2304397;54;21351;-73
2023/01/24 01:01:47;;;;;;;11.45;5.70;;;6.50;70.20;;;;;;2304576;54;21293;-73
2023/01/24 01:04:13;;;;;;;11.00;5.70;;;6.50;70.20;;;;;;2304612;54;21044;-71
2023/01/24 01:06:40;;;;;;;10.60;6.07;;;6.50;70.20;;;;;;2498800;53;21548;-70
2023/01/24 01:09:06;;;;;;;11.00;6.35;;;6.50;70.30;;;;;;2306387;53;21008;-73
2023/01/24 01:11:32;;;;;;;11.93;6.60;;;6.60;70.30;;;;;;2303726;54;20988;-72
2023/01/24 01:13:58;;;;;;;11.55;6.50;;;6.60;70.30;;;;;;2333916;53;21278;-73
2023/01/24 01:16:25;;;;;;;10.48;6.22;;;6.60;70.30;;;;;;2315843;53;21146;-75
2023/01/24 01:18:53;;;;;;;12.85;6.97;;;6.60;70.90;;;;;;2318882;53;20996;-74
2023/01/24 01:21:20;;;;;;;12.48;6.90;;;6.60;70.20;;;;;;2304511;54;20960;-71
2023/01/24 01:23:46;;;;;;;13.57;7.22;;;6.60;70.10;;;;;;2543774;53;20961;-73
2023/01/24 01:26:17;;;;;;;11.70;6.60;;;6.60;70.10;;;;;;2305299;54;21257;-74
2023/01/24 01:28:43;;;;;;;11.12;6.12;;;6.70;70.10;;;;;;2324648;53;21033;-75
2023/01/24 01:31:10;;;;;;;11.80;6.00;;;6.70;70.20;;;;;;2309907;53;20997;-75
2023/01/24 01:33:36;;;;;;;10.77;5.80;;;6.70;70.20;;;;;;2306941;53;21347;-75
2023/01/24 01:36:02;;;;;;;13.15;6.97;;;6.70;70.20;;;;;;2304270;53;21084;-73
2023/01/24 01:38:29;;;;;;;10.68;6.50;;;6.70;70.20;;;;;;2304234;54;21063;-74
2023/01/24 01:40:55;;;;;;;13.00;7.20;;;6.70;70.10;;;;;;2305462;54;20952;-76
2023/01/24 01:43:23;;;;;;;11.50;6.25;;;6.70;70.10;;;;;;2544109;53;20932;-75
2023/01/24 01:45:51;;;;;;;12.32;6.22;;;6.70;70.10;;;;;;2305676;54;21127;-71
2023/01/24 01:48:33;;;;;;;11.55;6.87;;;6.70;70.10;;;;;;2305009;54;21915;-74
2023/01/24 01:51:26;;;;;;;10.43;5.85;;;6.80;70.20;;;;;;2305696;54;20953;-76
2023/01/24 01:54:39;;;;;;;10.10;5.20;;;6.70;70.10;;;;;;2304775;54;21048;-74
2023/01/24 01:57:09;;;;;;;10.20;5.32;;;6.80;70.40;;;;;;2305390;54;20932;-74
2023/01/24 01:59:43;;;;;;;12.27;6.68;;;6.80;70.10;;;;;;2304883;54;20941;-73
2023/01/24 02:02:11;;;;;;;11.73;6.45;;;6.80;70.40;;;;;;2313385;54;21006;-71
2023/01/24 02:04:41;;;;;;;13.93;7.32;;;6.80;70.10;;;;;;2457942;53;21004;-74
2023/01/24 02:07:55;;;;;;;12.68;7.55;;;6.80;70.10;;;;;;2305486;53;20933;-71
2023/01/24 02:10:22;;;;;;;16.27;7.97;;;6.80;70.00;;;;;;2304631;54;20980;-73
2023/01/24 02:12:51;;;;;;;12.68;6.78;;;6.80;70.00;;;;;;2305178;54;20928;-74
2023/01/24 02:18:08;;;;;;;16.50;7.78;;;6.80;69.90;;;;;;2544508;53;21475;-72
2023/01/24 02:20:42;;;;;;;12.68;7.30;;;6.80;70.00;;;;;;2304856;53;22410;-71
2023/01/24 02:25:17;;;;;;;13.45;7.32;;;6.80;69.80;;;;;;2304698;53;20937;-73
2023/01/24 02:27:45;;;;;;;13.10;6.47;;;6.80;69.20;;;;;;2304203;54;21017;-74
2023/01/24 02:30:12;;;;;;;13.95;7.78;;;6.70;69.80;;;;;;2401145;53;21048;-72
2023/01/24 02:32:38;;;;;;;13.48;7.20;;;6.70;69.90;;;;;;2406959;53;21195;-73
2023/01/24 02:35:05;;;;;;;15.35;8.23;;;6.70;69.90;;;;;;2371929;53;21651;-73
2023/01/24 02:37:32;;;;;;;13.18;7.00;;;6.70;69.90;;;;;;2409622;53;20957;-71
2023/01/24 02:40:06;;;;;;;11.50;6.70;;;6.70;69.90;;;;;;2522067;53;20913;-74
2023/01/24 02:42:34;;;;;;;15.90;7.40;;;6.70;69.80;;;;;;2465662;53;20972;-74
2023/01/24 02:45:45;;;;;;;14.98;7.97;;;6.70;69.90;;;;;;2304172;54;21028;-71
2023/01/24 02:48:12;;;;;;;14.15;7.43;;;6.70;69.30;;;;;;2494336;53;21009;-74
2023/01/24 02:53:29;;;;;;;15.40;7.87;;;6.70;69.90;;;;;;2303978;54;21465;-74
2023/01/24 02:58:44;;;;;;;14.55;7.97;;;6.70;69.90;;;;;;2304141;54;21052;-72
2023/01/24 03:01:12;;;;;;;15.10;8.60;;;6.70;69.90;;;;;;2304196;54;21384;-72
2023/01/24 03:03:38;;;;;;;13.57;8.02;;;6.70;69.90;;;;;;2308715;54;21278;-74
2023/01/24 03:06:06;;;;;;;14.07;7.30;;;6.70;69.90;;;;;;2415376;53;20974;-75
2023/01/24 03:08:33;;;;;;;14.65;7.05;;;6.70;69.90;;;;;;2311034;53;21030;-73
2023/01/24 03:10:59;;;;;;;15.73;7.93;;;6.70;69.90;;;;;;2304277;54;21356;-74
2023/01/24 03:35:28;;;;;;;11.45;6.28;;;6.60;69.90;;;;;;2304229;54;20968;-73
2023/01/24 03:40:39;;;;;;;10.45;5.93;;;6.60;70.00;;;;;;2304330;54;21016;-75
2023/01/24 03:43:07;;;;;;;11.98;6.25;;;6.60;70.00;;;;;;2472189;53;20992;-73
2023/01/24 03:45:35;;;;;;;12.37;6.78;;;6.60;70.10;;;;;;2304481;54;21056;-73
2023/01/24 03:48:02;;;;;;;12.57;6.25;;;6.60;70.10;;;;;;2305433;54;20984;-74
2023/01/24 03:53:19;;;;;;;12.98;6.57;;;6.60;70.00;;;;;;2305156;54;21036;-76
2023/01/24 03:55:45;;;;;;;12.65;6.82;;;6.60;70.00;;;;;;2305187;54;20928;-73
2023/01/24 03:58:11;;;;;;;12.70;6.47;;;6.60;70.00;;;;;;2392606;53;21116;-76
2023/01/24 04:00:38;;;;;;;13.45;6.70;;;6.70;70.10;;;;;;2309558;53;20997;-75
2023/01/24 04:03:07;;;;;;;11.12;5.90;;;6.60;70.00;;;;;;2473107;53;20965;-76
2023/01/24 04:05:35;;;;;;;11.30;6.18;;;6.70;70.00;;;;;;2310277;54;20960;-73
2023/01/24 04:08:01;;;;;;;12.30;7.30;;;6.70;70.10;;;;;;2324967;53;21001;-72
2023/01/24 04:10:28;;;;;;;11.75;6.50;;;6.70;70.10;;;;;;2340222;53;21051;-74
2023/01/24 04:12:55;;;;;;;10.52;6.07;;;6.70;70.00;;;;;;2305221;54;20933;-74
2023/01/24 04:15:26;;;;;;;13.05;6.53;;;6.70;70.00;;;;;;2304681;54;21075;-73
2023/01/24 04:17:56;;;;;;;12.52;6.65;;;6.70;70.00;;;;;;2332479;53;20950;-74
2023/01/24 04:20:23;;;;;;;12.25;5.87;;;6.70;70.00;;;;;;2543305;53;20948;-71
2023/01/24 04:22:49;;;;;;;11.93;6.45;;;6.70;70.00;;;;;;2304133;54;21016;-71
2023/01/24 04:25:15;;;;;;;11.25;6.55;;;6.70;70.00;;;;;;2299093;54;21140;-72
2023/01/24 04:27:42;;;;;;;12.50;6.87;;;6.70;69.90;;;;;;2299525;54;21012;-76
2023/01/24 04:30:12;;;;;;;12.80;7.15;;;6.70;69.90;;;;;;2538305;53;20957;-72
2023/01/24 04:32:39;;;;;;;12.93;6.45;;;6.70;69.90;;;;;;2299386;54;21512;-73
2023/01/24 04:35:06;;;;;;;13.10;7.22;;;6.70;69.90;;;;;;2299193;54;20954;-73
2023/01/24 04:37:33;;;;;;;15.55;7.40;;;6.70;69.90;;;;;;2298732;54;21016;-73
2023/01/24 04:40:02;;;;;;;13.27;7.10;;;6.70;69.70;;;;;;2414240;53;21991;-75
2023/01/24 04:42:29;;;;;;;12.73;7.43;;;6.70;69.80;;;;;;2299317;54;21011;-73
2023/01/24 04:44:55;;;;;;;13.00;7.18;;;6.70;69.70;;;;;;2372569;53;21466;-71
2023/01/24 04:47:21;;;;;;;13.02;6.97;;;6.70;69.70;;;;;;2299532;54;21418;-75
2023/01/24 04:49:51;;;;;;;13.65;6.85;;;6.70;69.70;;;;;;2356013;53;20957;-72
2023/01/24 04:52:17;;;;;;;14.02;7.40;;;6.70;69.70;;;;;;2297192;54;21041;-73
2023/01/24 04:54:44;;;;;;;13.18;7.28;;;6.70;69.80;;;;;;2533459;53;21001;-72
2023/01/24 04:57:11;;;;;;;15.75;6.90;;;6.70;69.80;;;;;;2293760;54;20973;-73
2023/01/24 04:59:37;;;;;;;14.18;7.22;;;6.70;69.70;;;;;;2294317;54;20928;-73
2023/01/24 05:02:04;;;;;;;13.07;6.93;;;6.70;69.70;;;;;;2293957;54;20945;-76
2023/01/24 05:04:30;;;;;;;13.40;6.75;;;6.70;69.70;;;;;;2294620;54;20956;-72
2023/01/24 05:06:56;;;;;;;10.52;5.90;;;6.70;69.70;;;;;;2324287;54;20949;-71
2023/01/24 05:09:23;;;;;;;10.88;6.25;;;6.70;69.70;;;;;;2393242;53;20945;-75
2023/01/24 05:11:49;;;;;;;13.48;7.05;;;6.70;69.80;;;;;;2328433;53;20940;-73
2023/01/24 05:14:16;;;;;;;12.68;6.95;;;6.70;69.70;;;;;;2491854;53;20972;-74
2023/01/24 05:16:42;;;;;;;14.50;7.70;;;6.70;69.70;;;;;;2294765;53;21013;-71
2023/01/24 05:19:09;;;;;;;10.88;6.22;;;6.70;69.70;;;;;;2298747;54;20993;-74
2023/01/24 05:21:36;;;;;;;12.73;6.90;;;6.70;69.70;;;;;;2314157;53;21981;-73
2023/01/24 05:24:02;;;;;;;13.48;6.65;;;6.70;69.70;;;;;;2292987;54;21403;-75
2023/01/24 05:26:28;;;;;;;12.75;6.90;;;6.70;69.70;;;;;;2366056;53;21455;-73
2023/01/24 05:28:55;;;;;;;13.35;7.35;;;6.70;69.70;;;;;;2293344;54;21537;-72
2023/01/24 05:31:21;;;;;;;12.27;6.60;;;6.70;69.80;;;;;;2298957;53;21044;-75
2023/01/24 05:33:48;;;;;;;13.90;7.18;;;6.70;69.70;;;;;;2293619;54;21481;-73
2023/01/24 05:36:21;;;;;;;13.20;7.15;;;6.70;69.70;;;;;;2295711;54;21550;-71
2023/01/24 05:38:47;;;;;;;13.20;6.85;;;6.70;69.70;;;;;;2294004;54;20980;-76
2023/01/24 05:41:18;;;;;;;15.45;7.70;;;6.60;69.60;;;;;;2293216;54;21534;-73
2023/01/24 05:43:44;;;;;;;15.60;8.52;;;6.70;69.70;;;;;;2293257;54;21304;-75
2023/01/24 05:46:18;;;;;;;14.87;8.02;;;6.70;69.70;;;;;;2294108;54;22159;-75
2023/01/24 05:48:45;;;;;;;13.60;7.53;;;6.60;69.60;;;;;;2294251;54;22136;-72
2023/01/24 05:51:12;;;;;;;12.82;7.25;;;6.60;69.60;;;;;;2293699;54;21488;-72
2023/01/24 05:53:39;;;;;;;14.05;7.75;;;6.60;69.60;;;;;;2320591;53;21500;-72
2023/01/24 05:56:13;;;;;;;13.70;7.78;;;6.60;69.60;;;;;;2335480;53;21347;-72
2023/01/24 05:58:39;;;;;;;15.13;7.95;;;6.60;69.50;;;;;;2319866;54;21700;-75
2023/01/24 06:01:10;;;;;;;14.52;7.40;;;6.60;70.30;;;;;;2293346;54;21702;-76
2023/01/24 06:03:42;;;;;;;13.40;7.37;;;6.60;69.60;;;;;;2293742;54;21388;-74
2023/01/24 06:06:09;;;;;;;13.20;7.18;;;6.60;69.60;;;;;;2294380;54;20967;-73
2023/01/24 06:08:36;;;;;;;16.35;7.60;;;6.60;69.80;;;;;;2294270;54;22027;-73
2023/01/24 06:11:12;;;;;;;11.27;5.80;;;6.60;69.80;;;;;;2294251;54;21424;-73
2023/01/24 06:13:38;;;;;;;11.88;6.25;;;6.60;69.80;;;;;;2421745;53;22130;-73
2023/01/24 06:16:06;;;;;;;12.60;6.82;;;6.60;69.80;;;;;;2294621;54;20959;-73
2023/01/24 06:18:33;;;;;;;13.30;7.25;;;6.60;69.90;;;;;;2532834;53;21131;-73
2023/01/24 06:21:07;;;;;;;11.88;5.90;;;6.60;69.90;;;;;;2294136;54;21020;-72
2023/01/24 06:23:34;;;;;;;13.10;7.00;;;6.70;69.80;;;;;;2294643;54;21044;-73
2023/01/24 06:26:00;;;;;;;12.57;6.45;;;6.70;69.90;;;;;;2331888;53;22172;-73
2023/01/24 06:28:27;;;;;;;12.90;6.72;;;6.60;69.80;;;;;;2294899;54;21044;-71
2023/01/24 06:31:02;;;;;;;12.70;6.47;;;6.60;69.70;;;;;;2295039;54;21884;-73
2023/01/24 06:35:13;;;;;;;12.45;6.45;;;6.70;69.80;;;;;;2294094;54;20937;-71
2023/01/24 06:37:47;;;;;;;10.68;6.03;;;6.70;69.10;;;;;;2294390;54;20964;-72
2023/01/24 06:40:15;;;;;;;14.85;6.80;;;6.70;69.70;;;;;;2294546;54;20964;-73
2023/01/24 06:42:42;;;;;;;17.10;6.62;;;6.70;69.90;;;;;;2294777;54;21846;-72
2023/01/24 06:45:10;;;;;;;9.98;5.50;;;6.70;69.90;;;;;;2294264;54;22106;-73
2023/01/24 06:47:36;;;;;;;11.05;5.70;;;6.70;69.90;;;;;;2294893;54;21076;-72
2023/01/24 06:50:04;;;;;;;12.23;6.30;;;6.70;69.90;;;;;;2294829;54;20984;-73
2023/01/24 06:52:30;;;;;;;10.82;5.93;;;6.70;69.90;;;;;;2330076;54;20961;-72
2023/01/24 06:54:57;;;;;;;10.38;5.85;;;6.70;69.90;;;;;;2297302;54;21646;-73
2023/01/24 06:57:23;;;;;;;11.05;5.80;;;6.70;70.00;;;;;;2294545;54;22279;-73
2023/01/24 06:59:49;;;;;;;11.85;6.15;;;6.70;70.00;;;;;;2294839;53;20985;-73
2023/01/24 07:02:16;;;;;;;11.85;6.32;;;6.70;70.00;;;;;;2294450;54;20973;-73
2023/01/24 07:04:43;;;;;;;10.05;5.68;;;6.70;69.90;;;;;;2294707;54;20964;-73
2023/01/24 07:07:09;;;;;;;13.50;6.72;;;6.70;69.90;;;;;;2346567;53;20976;-73
2023/01/24 07:09:35;;;;;;;13.02;6.55;;;6.70;69.90;;;;;;2532124;53;21418;-72
2023/01/24 07:12:02;;;;;;;11.55;5.53;;;6.70;69.90;;;;;;2533155;53;21476;-73
2023/01/24 07:14:29;;;;;;;12.48;6.20;;;6.80;70.00;;;;;;2294815;54;20937;-73
2023/01/24 07:16:56;;;;;;;12.30;6.05;;;6.80;70.00;;;;;;2294997;54;21008;-73
2023/01/24 07:19:24;;;;;;;11.45;6.12;;;6.80;70.00;;;;;;2294648;54;21088;-73
2023/01/24 07:21:56;;;;;;;11.40;6.47;;;6.80;70.00;;;;;;2341999;53;20940;-73
2023/01/24 07:24:25;;;;;;;11.95;6.12;;;6.80;70.00;;;;;;2294832;54;20967;-72
2023/01/24 07:26:53;;;;;;;10.93;6.18;;;6.80;69.90;;;;;;2405385;53;21080;-73
2023/01/24 07:29:19;;;;;;;12.85;6.32;;;6.80;70.00;;;;;;2294565;54;20976;-73
2023/01/24 07:31:47;;;;;;;10.50;5.47;;;6.80;70.00;;;;;;2316247;53;21084;-73
2023/01/24 07:34:17;;;;;;;12.65;6.53;;;6.80;70.00;;;;;;2297620;53;21865;-72
2023/01/24 07:36:44;;;;;;;12.73;7.10;;;6.80;70.00;;;;;;2295018;54;21013;-73
2023/01/24 07:39:11;;;;;;;13.68;7.30;;;6.80;69.90;;;;;;2533128;53;21112;-72
2023/01/24 07:41:38;;;;;;;14.57;7.28;;;6.80;69.90;;;;;;2532894;53;21622;-72
2023/01/24 07:44:05;;;;;;;11.70;6.50;;;6.80;69.80;;;;;;2294205;53;21053;-72
2023/01/24 07:46:32;;;;;;;16.30;8.35;;;6.80;69.80;;;;;;2386745;53;20992;-73
2023/01/24 07:48:59;;;;;;;13.25;7.10;;;6.80;69.80;;;;;;2337110;53;22140;-73
2023/01/24 07:51:25;;;;;;;13.62;7.18;;;6.80;69.80;;;;;;2354936;53;20945;-73
2023/01/24 07:53:51;;;;;;;13.75;7.65;;;6.80;69.70;;;;;;2533318;53;20960;-73
2023/01/24 07:56:18;;;;;;;14.27;7.68;;;6.80;69.80;;;;;;2306145;54;21008;-73
2023/01/24 07:58:51;;;;;;;13.77;7.25;;;6.80;69.80;;;;;;2305917;53;20986;-72
2023/01/24 08:01:18;;;;;;;14.87;7.37;;;6.80;69.80;;;;;;2308815;53;20973;-73
2023/01/24 08:03:45;;;;;;;13.90;6.87;;;6.80;69.80;;;;;;2296153;54;21099;-73
2023/01/24 08:06:11;;;;;;;13.95;7.03;;;6.80;69.80;;;;;;2294972;54;21442;-72
2023/01/24 08:08:38;;;;;;;15.43;7.05;;;6.80;69.80;;;;;;2296675;54;21056;-73
2023/01/24 08:11:04;;;;;;;14.43;7.30;;;6.80;69.80;;;;;;2443297;53;21613;-73
2023/01/24 08:13:30;;;;;;;14.32;8.23;;;6.80;69.80;;;;;;2532531;53;22152;-73
2023/01/24 08:15:58;;;;;;;15.00;7.43;;;6.80;69.80;;;;;;2294977;54;20993;-72
2023/01/24 08:18:24;;;;;;;16.05;8.73;;;6.80;69.80;;;;;;2320959;53;21111;-73
2023/01/24 08:20:54;;;;;;;15.20;8.18;;;6.80;69.80;;;;;;2294827;54;20964;-73
2023/01/24 08:23:21;;;;;;;16.55;8.23;;;6.80;69.80;;;;;;2294770;54;20988;-73
2023/01/24 08:25:47;;;;;;;14.75;7.95;;;6.80;69.80;;;;;;2294923;54;21115;-73
2023/01/24 08:28:13;;;;;;;14.95;7.55;;;6.80;69.80;;;;;;2294601;54;21421;-73
2023/01/24 08:30:40;;;;;;;14.10;7.53;;;6.80;69.90;;;;;;2294955;54;20985;-73
2023/01/24 08:33:06;;;;;;;14.60;8.40;;;6.80;70.00;;;;;;2295083;54;20968;-74
2023/01/24 08:35:33;;;;;;;14.43;7.68;;;6.80;70.00;;;;;;2294417;54;20969;-73
2023/01/24 08:37:59;;;;;;;16.98;7.85;;;6.80;70.00;;;;;;2343261;53;20948;-73
2023/01/24 08:40:26;;;;;;;14.50;8.13;;;6.80;70.00;;;;;;2294335;54;20971;-73
2023/01/24 08:42:53;;;;;;;15.70;7.93;;;6.80;70.00;;;;;;2296998;54;22002;-73
2023/01/24 08:45:19;;;;;;;14.90;7.65;;;6.80;70.10;;;;;;2405156;53;21406;-73
2023/01/24 08:47:51;;;;;;;15.70;7.05;;;6.80;70.10;;;;;;2533066;53;20949;-73
2023/01/24 08:50:19;;;;;;;13.32;7.15;;;6.80;70.00;;;;;;2385038;53;21046;-73
2023/01/24 08:52:46;;;;;;;16.40;7.70;;;6.90;70.20;;;;;;2294902;54;20941;-73
2023/01/24 08:55:13;;;;;;;16.17;7.75;;;6.90;70.10;;;;;;2294862;54;20944;-73
2023/01/24 08:57:39;;;;;;;16.17;7.62;;;6.90;70.10;;;;;;2294885;54;21080;-73
2023/01/24 09:00:07;;;;;;;14.98;7.72;;;6.90;70.10;;;;;;2295096;54;20933;-73
2023/01/24 09:02:36;;;;;;;15.70;7.78;;;6.90;70.10;;;;;;2341523;53;21562;-71
2023/01/24 09:05:04;;;;;;;16.80;7.95;;;6.90;70.10;;;;;;2295173;54;21374;-73
2023/01/24 09:07:31;;;;;;;14.60;8.23;;;6.90;70.10;;;;;;2295146;54;20995;-73
2023/01/24 09:09:57;;;;;;;15.38;8.48;;;6.90;70.10;;;;;;2295500;54;21059;-73
2023/01/24 09:12:24;;;;;;;13.77;7.50;;;7.00;70.20;;;;;;2294912;54;20960;-73
2023/01/24 09:14:51;;;;;;;17.33;8.75;;;6.90;70.10;;;;;;2295285;54;20981;-73
2023/01/24 09:17:17;;;;;;;15.00;8.35;;;7.00;70.20;;;;;;2527807;53;20957;-73
2023/01/24 09:19:44;;;;;;;17.00;8.15;;;7.00;70.20;;;;;;2335978;53;20943;-72
2023/01/24 09:22:11;;;;;;;15.05;7.90;;;7.00;70.20;;;;;;2390057;53;20965;-75
2023/01/24 09:24:37;;;;;;;16.05;8.73;;;6.90;70.10;;;;;;2472542;53;21040;-74
2023/01/24 09:27:03;;;;;;;16.70;8.90;;;7.00;70.20;;;;;;2295175;54;21382;-74
2023/01/24 09:29:30;;;;;;;16.35;8.13;;;7.00;70.20;;;;;;2397276;53;20948;-75
2023/01/24 09:31:57;;;;;;;19.27;9.05;;;7.00;70.20;;;;;;2354221;53;20976;-73
2023/01/24 09:34:23;;;;;;;18.70;8.82;;;7.00;70.20;;;;;;2294637;54;20969;-73
2023/01/24 09:36:49;;;;;;;17.80;9.07;;;7.00;70.20;;;;;;2322361;53;20937;-74
2023/01/24 09:39:16;;;;;;;16.83;8.90;;;7.00;70.20;;;;;;2295148;54;20929;-73
2023/01/24 09:42:08;;;;;;;16.27;9.68;;;7.00;70.70;;;;;;2294803;54;21080;-73
2023/01/24 09:44:42;;;;;;;15.60;7.97;;;7.00;70.20;;;;;;2294398;54;20985;-73
2023/01/24 09:47:20;;;;;;;15.82;8.65;;;7.00;70.20;;;;;;2313740;53;20933;-73
2023/01/24 09:50:08;;;;;;;16.10;8.27;;;7.00;70.10;;;;;;2295105;54;20937;-73
2023/01/24 09:52:45;;;;;;;18.02;9.05;;;7.00;70.00;;;;;;2294764;54;20964;-73
2023/01/24 09:55:44;;;;;;;16.48;8.95;;;7.10;70.20;;;;;;2395051;53;20961;-73
2023/01/24 09:58:30;;;;;;;15.57;8.60;;;7.10;69.90;;;;;;2297449;53;21100;-73
2023/01/24 10:01:08;;;;;;;18.92;9.15;;;7.10;70.30;;;;;;2399613;53;21024;-73
2023/01/24 10:03:35;;;;;;;18.17;9.00;;;7.10;70.40;;;;;;2295388;54;22033;-72
2023/01/24 10:06:24;;;;;;;17.65;9.13;;;7.10;70.40;;;;;;2295088;54;21135;-73
2023/01/24 10:09:12;;;;;;;17.52;8.95;;;7.10;70.10;;;;;;2295359;54;20968;-73
2023/01/24 10:12:10;;;;;;;15.15;7.78;;;7.10;70.50;;;;;;2294947;54;21019;-73
2023/01/24 10:14:52;;;;;;;14.18;7.68;;;7.10;70.30;;;;;;2303322;54;20965;-73
2023/01/24 10:17:42;;;;;;;15.05;8.00;;;7.20;70.40;;;;;;2532997;53;22042;-73
2023/01/24 10:20:49;;;;;;;13.38;7.35;;;7.20;70.60;;;;;;2293951;54;20941;-73
2023/01/24 10:23:24;;;;;;;13.57;7.53;;;7.20;70.30;;;;;;2514956;53;21065;-73
2023/01/24 10:26:30;;;;;;;16.55;7.97;;;7.20;70.60;;;;;;2481155;53;21643;-73
2023/01/24 10:28:56;;;;;;;14.20;7.28;;;7.20;70.60;;;;;;2294734;54;21425;-73
2023/01/24 10:31:27;;;;;;;17.33;7.60;;;7.30;70.80;;;;;;2553570;53;20951;-73
2023/01/24 10:33:57;;;;;;;15.32;8.27;;;7.30;70.80;;;;;;2450300;53;20988;-73
2023/01/24 10:38:15;;;;;;;14.43;7.55;;;7.30;70.80;;;;;;2412756;53;21032;-73
2023/01/24 10:47:40;;;;;;;16.02;7.43;;;7.40;70.10;;;;;;2294547;54;21008;-74
2023/01/24 10:50:07;;;;;;;9.75;4.80;;;7.50;70.70;;;;;;2294780;54;20966;-73
2023/01/24 10:52:34;;;;;;;12.77;6.03;;;7.60;71.00;;;;;;2340641;53;21005;-73
2023/01/24 10:55:01;;;;;;;14.10;6.78;;;7.60;71.00;;;;;;2415332;53;21091;-72
2023/01/24 10:57:54;;;;;;;15.70;7.70;;;7.60;71.00;;;;;;2293278;54;21461;-73
2023/01/24 11:00:41;;;;;;;12.65;6.37;;;7.70;71.10;;;;;;2293985;54;21501;-73
2023/01/24 11:03:25;;;;;;;12.23;6.43;;;7.70;70.80;;;;;;2519573;53;20967;-73
2023/01/24 11:05:54;;;;;;;12.60;7.32;;;7.80;71.10;;;;;;2283349;55;21600;-73
2023/01/24 11:08:22;;;;;;;14.40;7.20;;;7.80;71.20;;;;;;2295668;54;22009;-73
2023/01/24 11:10:53;;;;;;;14.80;7.57;;;7.80;71.00;;;;;;2359453;53;21379;-74
2023/01/24 11:13:41;;;;;;;11.87;6.70;;;7.80;70.80;;;;;;2292374;55;22005;-73
2023/01/24 11:16:20;;;;;;;14.85;7.35;;;7.90;70.50;;;;;;2339318;53;21373;-73
2023/01/24 11:18:58;;;;;;;14.45;7.80;;;7.90;70.60;;;;;;2293929;54;20953;-72
2023/01/24 11:21:27;;;;;;;15.10;7.35;;;7.90;70.70;;;;;;2408749;53;21517;-73
2023/01/24 11:24:27;;;;;;;15.80;7.60;;;7.90;70.80;;;;;;2293217;54;21527;-73
2023/01/24 11:27:14;;;;;;;13.60;6.90;;;7.90;70.20;;;;;;2293789;54;20932;-72
2023/01/24 11:29:40;;;;;;;12.70;5.97;;;8.00;70.50;;;;;;2293835;54;21308;-73
2023/01/24 11:33:15;;;;;;;13.13;6.47;;;8.00;70.90;;;;;;2293215;54;22105;-73
2023/01/24 11:35:51;;;;;;;13.38;6.37;;;8.10;70.70;;;;;;2292860;54;21581;-73
2023/01/24 11:38:40;;;;;;;12.02;7.20;;;8.10;70.80;;;;;;2293782;54;21342;-73
2023/01/24 11:41:51;;;;;;;12.68;6.87;;;8.10;70.50;;;;;;2412113;53;20940;-73
2023/01/24 11:44:35;;;;;;;13.32;6.43;;;8.20;70.20;;;;;;2293670;54;21079;-72
2023/01/24 11:47:21;;;;;;;12.88;7.03;;;8.20;70.70;;;;;;2293434;54;20972;-73
2023/01/24 11:50:21;;;;;;;14.05;6.57;;;8.30;70.60;;;;;;2293286;54;21331;-73
2023/01/24 11:54:40;;;;;;;13.40;6.57;;;8.20;70.40;;;;;;2346065;53;20960;-73
2023/01/24 11:57:37;;;;;;;13.43;6.10;;;8.30;70.40;;;;;;2340883;53;21482;-73
2023/01/24 12:02:13;;;;;;;11.20;6.07;;;8.30;70.70;;;;;;2324536;53;20955;-73
2023/01/24 12:07:28;;;;;;;12.95;6.28;;;8.40;70.00;;;;;;2309881;53;21562;-73
2023/01/24 12:10:09;;;;;;;15.85;7.10;;;8.40;69.80;;;;;;2356923;53;22003;-73
2023/01/24 12:12:43;;;;;;;13.35;6.80;;;8.40;70.20;;;;;;2296737;53;20984;-73
2023/01/24 12:21:15;;;;;;;14.38;7.35;;;8.40;70.30;;;;;;2293516;54;20948;-73
2023/01/24 12:23:56;;;;;;;10.75;5.28;;;8.40;70.40;;;;;;2533219;53;20969;-74
2023/01/24 12:26:27;;;;;;;11.65;5.85;;;8.40;70.20;;;;;;2366163;53;21809;-73
2023/01/24 12:29:11;;;;;;;13.40;6.37;;;8.30;70.20;;;;;;2294514;54;21613;-73
2023/01/24 12:35:08;;;;;;;12.52;6.62;;;8.30;70.10;;;;;;2293730;54;21930;-73
2023/01/24 12:38:10;;;;;;;10.38;5.37;;;8.30;69.90;;;;;;2293583;54;21424;-72
2023/01/24 12:42:35;;;;;;;10.15;5.45;;;8.30;70.00;;;;;;2344782;53;21898;-73
2023/01/24 12:45:04;;;;;;;11.38;5.40;;;8.40;69.80;;;;;;2476671;53;21682;-73
2023/01/24 12:47:43;;;;;;;12.07;6.72;;;8.40;70.70;;;;;;2307301;54;21004;-73
2023/01/24 12:51:54;;;;;;;12.57;6.65;;;8.40;70.40;;;;;;2313570;54;21421;-72
2023/01/24 12:54:32;;;;;;;9.60;5.60;;;8.40;70.40;;;;;;2358066;53;20956;-73
2023/01/24 12:58:34;;;;;;;13.32;6.37;;;8.40;70.60;;;;;;2304231;54;20977;-72
2023/01/24 13:01:31;;;;;;;13.80;6.97;;;8.40;69.80;;;;;;2368031;53;21460;-72
2023/01/24 13:08:38;;;;;;;10.50;5.65;;;8.50;70.30;;;;;;2571075;53;21955;-73
2023/01/24 13:11:35;;;;;;;10.98;5.45;;;8.50;69.70;;;;;;2532443;53;21323;-73
2023/01/24 13:15:04;;;;;;;9.85;5.57;;;8.50;70.30;;;;;;2326438;53;21540;-73
2023/01/24 13:18:04;;;;;;;11.43;5.50;;;8.50;69.70;;;;;;2335325;53;21020;-72
2023/01/24 13:21:51;;;;;;;10.98;5.75;;;8.50;70.10;;;;;;2314049;54;21391;-73
2023/01/24 13:32:40;;;;;;;10.38;5.80;;;8.50;70.10;;;;;;2314285;54;21284;-73
2023/01/24 13:35:20;;;;;;;7.60;3.70;;;8.50;69.60;;;;;;2384255;53;21371;-72
2023/01/24 13:37:54;;;;;;;10.73;5.20;;;8.50;70.40;;;;;;2408833;53;20933;-73
2023/01/24 13:40:27;;;;;;;11.55;5.93;;;8.50;70.50;;;;;;2314140;54;21639;-73
2023/01/24 13:42:54;;;;;;;12.73;6.15;;;8.50;70.50;;;;;;2554507;53;20922;-73
2023/01/24 13:46:02;;;;;;;13.30;6.15;;;8.40;70.60;;;;;;2314242;54;20965;-72
2023/01/24 13:53:52;;;;;;;11.80;6.03;;;8.50;69.90;;;;;;2314467;54;21436;-73
2023/01/24 13:56:19;;;;;;;11.50;5.35;;;8.50;69.70;;;;;;2314063;54;21557;-73
2023/01/24 13:58:45;;;;;;;14.18;6.30;;;8.50;70.40;;;;;;2382686;53;20980;-72
2023/01/24 14:01:15;;;;;;;10.40;6.32;;;8.50;70.30;;;;;;2452918;53;21011;-72
2023/01/24 14:04:00;;;;;;;13.52;7.22;;;8.50;70.30;;;;;;2314202;54;21003;-72
2023/01/24 14:06:28;;;;;;;12.57;6.65;;;8.40;70.10;;;;;;2327294;54;21492;-73
2023/01/24 14:09:00;;;;;;;11.23;6.50;;;8.40;70.40;;;;;;2313729;54;20984;-73
2023/01/24 14:11:35;;;;;;;10.30;5.85;;;8.30;70.30;;;;;;2313990;54;20997;-73
2023/01/24 14:14:21;;;;;;;8.82;5.20;;;8.40;70.50;;;;;;2560325;53;21877;-73
2023/01/24 14:16:57;;;;;;;11.55;6.12;;;8.40;70.70;;;;;;2327157;53;21036;-73
2023/01/24 14:19:29;;;;;;;13.02;6.87;;;8.40;70.50;;;;;;2314606;54;20945;-73
2023/01/24 14:22:04;;;;;;;12.80;6.55;;;8.40;70.70;;;;;;2314539;54;21724;-72
2023/01/24 14:24:48;;;;;;;11.27;6.05;;;8.50;70.80;;;;;;2316394;54;21021;-73
2023/01/24 14:27:18;;;;;;;11.75;5.87;;;8.50;70.60;;;;;;2313167;54;20956;-72
2023/01/24 14:29:46;;;;;;;10.25;6.12;;;8.50;70.60;;;;;;2414977;53;21095;-72
2023/01/24 14:32:23;;;;;;;12.88;6.82;;;8.50;70.60;;;;;;2319331;54;21378;-72
2023/01/24 14:35:14;;;;;;;11.02;6.07;;;8.50;70.40;;;;;;2356929;53;21009;-73
2023/01/24 14:37:40;;;;;;;11.10;5.72;;;8.50;70.10;;;;;;2314404;54;21537;-73
2023/01/24 14:40:26;;;;;;;12.73;6.57;;;8.50;70.50;;;;;;2425406;53;21406;-73